Time;durP1;ratioP1;P1;durP2;ratioP2;P2;SDS_P1;SDS_P2;PMS_P1;PMS_P2;Temp;Humidity;BMP_temperature;BMP_pressure;BME280_temperature;BME280_humidity;BME280_pressure;Samples;Min_cycle;Max_cycle;Signal;HPM_P1;HPM_P2
2022/03/17 00:00:16;;;;;;;35.73;19.97;;;13.00;51.00;;;;;;5131129;27;20468;-86
2022/03/17 00:02:44;;;;;;;34.00;19.50;;;13.00;50.90;;;;;;5102119;27;20457;-87
2022/03/17 00:05:13;;;;;;;35.73;19.47;;;13.00;50.80;;;;;;5095744;27;20441;-87
2022/03/17 00:07:41;;;;;;;30.80;18.17;;;12.90;50.90;;;;;;5113594;27;20522;-87
2022/03/17 00:10:10;;;;;;;32.03;17.60;;;12.80;51.20;;;;;;5128772;27;20967;-87
2022/03/17 00:12:38;;;;;;;34.67;19.20;;;12.80;51.10;;;;;;5109547;27;20460;-86
2022/03/17 00:15:07;;;;;;;38.63;21.23;;;12.80;51.30;;;;;;5130199;27;20480;-86
2022/03/17 00:17:34;;;;;;;36.43;19.93;;;12.70;51.20;;;;;;5111161;27;20454;-84
2022/03/17 00:20:02;;;;;;;29.80;18.17;;;12.70;51.20;;;;;;5129386;27;20473;-87
2022/03/17 00:22:29;;;;;;;39.90;20.83;;;12.70;51.10;;;;;;5130505;27;20469;-86
2022/03/17 00:24:56;;;;;;;35.60;21.33;;;12.70;51.40;;;;;;5110961;27;20473;-86
2022/03/17 00:27:23;;;;;;;35.00;20.43;;;12.70;51.50;;;;;;5113187;27;20457;-86
2022/03/17 00:29:50;;;;;;;33.67;19.43;;;12.70;51.30;;;;;;5112376;27;20558;-87
2022/03/17 00:32:20;;;;;;;30.90;19.43;;;12.70;51.40;;;;;;5111547;27;20487;-87
2022/03/17 00:37:32;;;;;;;37.00;21.77;;;12.70;51.40;;;;;;5130051;27;20450;-86
2022/03/17 00:39:59;;;;;;;37.10;20.67;;;12.70;51.60;;;;;;5093804;27;20547;-86
2022/03/17 00:42:27;;;;;;;42.90;21.13;;;12.70;51.40;;;;;;5130933;27;20999;-88
2022/03/17 00:44:54;;;;;;;39.50;21.40;;;12.70;51.10;;;;;;5093967;27;21110;-85
2022/03/17 00:47:23;;;;;;;38.07;21.13;;;12.70;51.30;;;;;;5097402;27;20525;-86
2022/03/17 00:49:50;;;;;;;38.03;20.53;;;12.70;51.60;;;;;;5128847;27;20546;-86
2022/03/17 00:52:20;;;;;;;42.53;22.67;;;12.70;51.40;;;;;;5112727;27;20442;-87
2022/03/17 00:54:48;;;;;;;40.57;22.00;;;12.70;51.50;;;;;;5092848;27;20472;-87
2022/03/17 00:57:15;;;;;;;37.87;20.50;;;12.70;51.50;;;;;;5132003;27;20471;-88
2022/03/17 00:59:42;;;;;;;38.53;20.73;;;12.70;51.40;;;;;;5112820;27;20465;-87
2022/03/17 01:02:09;;;;;;;36.07;21.13;;;12.60;51.10;;;;;;5130948;27;20969;-88
2022/03/17 01:04:37;;;;;;;39.60;20.93;;;12.60;51.20;;;;;;5096716;27;20477;-84
2022/03/17 01:07:05;;;;;;;34.87;20.00;;;12.60;51.30;;;;;;5106921;27;20464;-86
2022/03/17 01:09:32;;;;;;;34.57;20.20;;;12.60;51.90;;;;;;5096311;27;20464;-86
2022/03/17 01:11:59;;;;;;;38.60;19.77;;;12.60;51.20;;;;;;5098580;27;20528;-87
2022/03/17 01:14:26;;;;;;;39.70;21.93;;;12.50;51.30;;;;;;5076730;27;20466;-86
2022/03/17 01:16:53;;;;;;;33.63;19.00;;;12.50;51.60;;;;;;5112655;27;21195;-87
2022/03/17 01:19:20;;;;;;;42.87;19.17;;;12.50;51.70;;;;;;5129436;27;20472;-87
2022/03/17 01:21:49;;;;;;;36.13;21.47;;;12.40;51.40;;;;;;5095362;27;20461;-87
2022/03/17 01:24:17;;;;;;;32.60;19.67;;;12.40;52.10;;;;;;5110073;27;20505;-87
2022/03/17 01:26:44;;;;;;;38.50;21.30;;;12.30;52.70;;;;;;5110313;27;20449;-88
2022/03/17 01:29:11;;;;;;;36.20;19.13;;;12.40;52.50;;;;;;5109944;27;20442;-87
2022/03/17 01:31:38;;;;;;;32.07;19.27;;;12.50;52.20;;;;;;5111789;27;20456;-87
2022/03/17 01:34:05;;;;;;;34.93;20.40;;;12.40;51.30;;;;;;5115489;27;20611;-87
2022/03/17 01:36:32;;;;;;;38.70;20.27;;;12.40;51.80;;;;;;5111258;27;20490;-87
2022/03/17 01:39:01;;;;;;;39.17;21.10;;;12.50;51.80;;;;;;5111430;27;20461;-87
2022/03/17 01:41:28;;;;;;;36.40;21.30;;;12.60;51.50;;;;;;5111348;27;21000;-87
2022/03/17 01:43:55;;;;;;;43.67;21.10;;;12.50;52.00;;;;;;5128639;27;20464;-87
2022/03/17 01:46:22;;;;;;;35.43;19.80;;;12.40;51.90;;;;;;5112454;27;21331;-86
2022/03/17 01:48:49;;;;;;;36.60;20.53;;;12.30;52.20;;;;;;5109268;27;20447;-86
2022/03/17 01:51:16;;;;;;;36.23;19.70;;;12.40;52.00;;;;;;5130541;27;20479;-86
2022/03/17 01:53:43;;;;;;;35.73;20.03;;;12.50;52.40;;;;;;5111246;27;20480;-87
2022/03/17 01:56:12;;;;;;;37.80;21.83;;;12.50;52.50;;;;;;5112312;27;20463;-85
2022/03/17 01:58:40;;;;;;;35.27;20.60;;;12.50;52.40;;;;;;5109818;27;20434;-86
2022/03/17 02:01:08;;;;;;;35.23;20.20;;;12.50;52.40;;;;;;5127812;27;20649;-87
2022/03/17 02:03:35;;;;;;;38.30;20.90;;;12.50;52.40;;;;;;5129597;27;21229;-87
2022/03/17 02:06:02;;;;;;;36.27;20.60;;;12.60;52.40;;;;;;5111199;27;20453;-88
2022/03/17 02:08:29;;;;;;;41.10;21.70;;;12.60;52.30;;;;;;5129863;27;20437;-86
2022/03/17 02:13:42;;;;;;;38.57;19.97;;;12.60;52.00;;;;;;5129270;27;21004;-87
2022/03/17 02:16:09;;;;;;;35.80;21.03;;;12.60;52.10;;;;;;5130509;27;20453;-85
2022/03/17 02:18:36;;;;;;;34.60;20.20;;;12.60;52.20;;;;;;5110763;27;20476;-86
2022/03/17 02:21:05;;;;;;;42.30;20.60;;;12.60;51.90;;;;;;5126755;27;21077;-86
2022/03/17 02:26:22;;;;;;;43.17;21.20;;;12.70;52.00;;;;;;5111933;27;20453;-87
2022/03/17 02:28:49;;;;;;;42.80;22.60;;;12.70;52.00;;;;;;5129332;27;20437;-86
2022/03/17 02:31:16;;;;;;;42.63;23.13;;;12.70;52.00;;;;;;5127341;27;20441;-87
2022/03/17 02:33:43;;;;;;;38.20;20.80;;;12.70;52.00;;;;;;5130353;27;20461;-87
2022/03/17 02:36:10;;;;;;;41.07;21.70;;;12.70;51.80;;;;;;5132307;27;20444;-87
2022/03/17 02:38:38;;;;;;;44.50;24.90;;;12.70;52.00;;;;;;5099080;27;20492;-87
2022/03/17 02:41:05;;;;;;;39.80;20.30;;;12.60;51.90;;;;;;5131406;27;20472;-87
2022/03/17 02:43:32;;;;;;;40.27;23.00;;;12.60;52.10;;;;;;5113203;27;20472;-87
2022/03/17 02:45:59;;;;;;;39.03;21.67;;;12.60;52.20;;;;;;5099509;27;20560;-87
2022/03/17 02:48:26;;;;;;;38.70;20.83;;;12.60;52.50;;;;;;5120453;27;20447;-88
2022/03/17 02:50:53;;;;;;;44.80;22.63;;;12.60;52.30;;;;;;5096568;27;20993;-87
2022/03/17 02:53:20;;;;;;;40.20;20.90;;;12.60;52.40;;;;;;5114209;27;20465;-86
2022/03/17 02:55:48;;;;;;;37.03;22.33;;;12.60;52.40;;;;;;5096923;27;20448;-87
2022/03/17 02:58:16;;;;;;;35.70;20.53;;;12.60;52.30;;;;;;5097857;27;20453;-88
2022/03/17 03:00:43;;;;;;;42.93;22.63;;;12.60;52.30;;;;;;5101583;27;20474;-87
2022/03/17 03:03:10;;;;;;;38.33;21.07;;;12.50;52.20;;;;;;5131928;27;20476;-86
2022/03/17 03:05:38;;;;;;;43.87;22.50;;;12.50;52.20;;;;;;5113704;27;20450;-87
2022/03/17 03:08:05;;;;;;;40.77;22.60;;;12.50;52.20;;;;;;5111985;27;20449;-87
2022/03/17 03:10:33;;;;;;;46.23;23.10;;;12.50;52.20;;;;;;5097502;27;20976;-86
2022/03/17 03:13:01;;;;;;;39.93;22.43;;;12.50;52.40;;;;;;5130775;27;20505;-87
2022/03/17 03:15:29;;;;;;;40.30;23.03;;;12.40;52.40;;;;;;5114401;27;20438;-86
2022/03/17 03:17:57;;;;;;;44.90;23.77;;;12.50;52.40;;;;;;5113029;27;20456;-87
2022/03/17 03:20:24;;;;;;;40.30;22.90;;;12.50;52.30;;;;;;5114500;27;20473;-86
2022/03/17 03:22:51;;;;;;;35.20;20.13;;;12.50;52.10;;;;;;5112001;27;20457;-87
2022/03/17 03:25:18;;;;;;;45.67;22.33;;;12.40;51.90;;;;;;5096653;27;20521;-87
2022/03/17 03:27:45;;;;;;;40.33;22.07;;;12.40;52.20;;;;;;5130992;27;20490;-85
2022/03/17 03:30:15;;;;;;;41.53;23.50;;;12.40;52.30;;;;;;5114151;27;21030;-87
2022/03/17 03:32:44;;;;;;;38.67;23.20;;;12.50;52.40;;;;;;5097857;27;20452;-86
2022/03/17 03:37:57;;;;;;;41.03;22.03;;;12.40;52.10;;;;;;5131931;27;20928;-87
2022/03/17 03:40:24;;;;;;;46.23;22.93;;;12.40;52.20;;;;;;5112417;27;20462;-87
2022/03/17 03:42:51;;;;;;;40.83;22.30;;;12.40;52.50;;;;;;5111067;27;20452;-87
2022/03/17 03:45:21;;;;;;;42.00;22.97;;;12.40;52.50;;;;;;5112914;27;20442;-86
2022/03/17 03:47:48;;;;;;;56.23;22.93;;;12.40;52.50;;;;;;5110819;27;20440;-87
2022/03/17 03:50:15;;;;;;;37.83;20.50;;;12.40;52.30;;;;;;5112981;27;20446;-87
2022/03/17 03:52:43;;;;;;;33.80;21.13;;;12.40;52.40;;;;;;5128813;27;20446;-87
2022/03/17 03:55:11;;;;;;;42.97;22.97;;;12.40;52.20;;;;;;5132707;27;20465;-87
2022/03/17 03:57:38;;;;;;;44.10;23.13;;;12.40;52.30;;;;;;5112646;27;20449;-86
2022/03/17 04:00:15;;;;;;;40.87;23.20;;;12.40;52.60;;;;;;5134426;27;21006;-88
2022/03/17 04:02:43;;;;;;;44.07;23.40;;;12.40;52.60;;;;;;5096597;27;20457;-86
2022/03/17 04:05:11;;;;;;;38.67;22.57;;;12.50;52.50;;;;;;5116192;27;20469;-86
2022/03/17 04:07:38;;;;;;;40.50;22.87;;;12.50;52.10;;;;;;5111978;27;20482;-86
2022/03/17 04:10:07;;;;;;;44.37;23.47;;;12.50;52.10;;;;;;5114794;27;20477;-87
2022/03/17 04:12:34;;;;;;;40.03;22.70;;;12.50;52.20;;;;;;5111133;27;20438;-84
2022/03/17 04:15:01;;;;;;;40.27;21.70;;;12.50;52.10;;;;;;5130758;27;21221;-87
2022/03/17 04:17:28;;;;;;;40.97;23.07;;;12.50;52.20;;;;;;5130192;27;20456;-88
2022/03/17 04:19:56;;;;;;;43.80;23.53;;;12.50;52.20;;;;;;5131338;27;20508;-86
2022/03/17 04:22:23;;;;;;;42.00;23.50;;;12.50;52.10;;;;;;5112611;27;20460;-87
2022/03/17 04:24:50;;;;;;;46.87;24.50;;;12.50;51.80;;;;;;5130179;27;20587;-86
2022/03/17 04:27:17;;;;;;;52.03;24.70;;;12.50;51.80;;;;;;5095600;27;20457;-86
2022/03/17 04:29:44;;;;;;;41.50;22.73;;;12.50;51.70;;;;;;5129186;27;20429;-87
2022/03/17 04:32:11;;;;;;;47.17;24.87;;;12.50;51.90;;;;;;5112089;27;20445;-88
2022/03/17 04:34:38;;;;;;;41.17;23.30;;;12.60;51.90;;;;;;5110808;27;20470;-87
2022/03/17 04:37:12;;;;;;;45.93;24.17;;;12.60;52.10;;;;;;5113350;27;21443;-86
2022/03/17 04:39:39;;;;;;;45.67;25.27;;;12.60;52.30;;;;;;5111064;27;21181;-86
2022/03/17 04:42:08;;;;;;;46.17;24.60;;;12.50;52.00;;;;;;5117983;27;20457;-87
2022/03/17 04:44:35;;;;;;;47.23;25.17;;;12.50;52.00;;;;;;5093870;27;20553;-86
2022/03/17 04:47:02;;;;;;;43.23;25.97;;;12.50;52.00;;;;;;5098317;27;20461;-87
2022/03/17 04:49:29;;;;;;;54.57;27.13;;;12.50;51.90;;;;;;5114403;27;20450;-87
2022/03/17 04:51:56;;;;;;;52.03;24.20;;;12.40;51.90;;;;;;5110266;27;20823;-87
2022/03/17 04:54:24;;;;;;;50.20;25.70;;;12.40;52.00;;;;;;5113422;27;21742;-87
2022/03/17 04:56:51;;;;;;;46.10;24.90;;;12.20;51.90;;;;;;5110367;27;20437;-87
2022/03/17 04:59:20;;;;;;;53.30;26.20;;;12.10;52.50;;;;;;5103140;27;21457;-86
2022/03/17 05:01:47;;;;;;;52.37;26.00;;;12.20;52.60;;;;;;5112910;27;20545;-88
2022/03/17 05:04:14;;;;;;;50.20;25.07;;;12.10;52.50;;;;;;5111562;27;20466;-87
2022/03/17 05:06:41;;;;;;;42.20;23.10;;;12.10;52.60;;;;;;5092277;27;20531;-87
2022/03/17 05:09:08;;;;;;;46.40;26.27;;;11.90;52.20;;;;;;5129419;27;20944;-87
2022/03/17 05:11:37;;;;;;;54.77;29.03;;;12.00;52.40;;;;;;5093801;27;20532;-86
2022/03/17 05:14:04;;;;;;;55.37;29.83;;;12.10;52.70;;;;;;5097868;27;20627;-87
2022/03/17 05:16:31;;;;;;;63.90;31.80;;;12.20;52.20;;;;;;5093928;27;20447;-87
2022/03/17 05:18:58;;;;;;;52.37;29.50;;;12.30;52.10;;;;;;5114218;27;20453;-88
2022/03/17 05:21:25;;;;;;;48.23;27.10;;;12.40;52.40;;;;;;5110705;27;20473;-87
2022/03/17 05:23:52;;;;;;;50.10;25.97;;;12.40;52.10;;;;;;5093816;27;20468;-86
2022/03/17 05:26:20;;;;;;;45.10;25.90;;;12.50;52.20;;;;;;5100912;27;21249;-87
2022/03/17 05:28:48;;;;;;;45.43;24.97;;;12.50;52.00;;;;;;5102237;27;20521;-87
2022/03/17 05:31:15;;;;;;;44.10;24.60;;;12.60;52.10;;;;;;5114151;27;20442;-88
2022/03/17 05:33:42;;;;;;;63.63;32.80;;;12.60;52.20;;;;;;5130700;27;20465;-86
2022/03/17 05:36:09;;;;;;;52.13;30.50;;;12.60;51.90;;;;;;5130909;27;20543;-87
2022/03/17 05:38:36;;;;;;;49.77;27.70;;;12.50;51.80;;;;;;5130431;27;20983;-87
2022/03/17 05:41:03;;;;;;;52.60;28.80;;;12.50;52.00;;;;;;5112714;27;20464;-87
2022/03/17 05:43:30;;;;;;;52.87;27.23;;;12.50;52.50;;;;;;5114003;27;20480;-88
2022/03/17 05:45:58;;;;;;;50.03;27.00;;;12.50;52.40;;;;;;5109283;27;20463;-87
2022/03/17 05:48:25;;;;;;;48.20;26.57;;;12.60;52.20;;;;;;5129664;27;20448;-87
2022/03/17 05:50:52;;;;;;;49.90;27.37;;;12.60;52.30;;;;;;5111616;27;20430;-87
2022/03/17 05:53:20;;;;;;;45.70;26.00;;;12.60;52.30;;;;;;5110598;28;20843;-87
2022/03/17 05:55:47;;;;;;;45.30;25.53;;;12.50;51.70;;;;;;5109879;27;20445;-87
2022/03/17 05:58:14;;;;;;;44.90;25.53;;;12.50;51.60;;;;;;5117764;27;20442;-88
2022/03/17 06:00:41;;;;;;;39.93;25.50;;;12.50;51.90;;;;;;5128743;27;20458;-86
2022/03/17 06:03:09;;;;;;;53.67;26.00;;;12.60;52.10;;;;;;5129250;27;21162;-87
2022/03/17 06:05:36;;;;;;;48.17;24.70;;;12.60;52.30;;;;;;5083397;27;20453;-87
2022/03/17 06:08:04;;;;;;;44.90;24.70;;;12.60;52.10;;;;;;5129757;27;20457;-87
2022/03/17 06:10:33;;;;;;;47.70;25.87;;;12.50;51.40;;;;;;5132622;27;20450;-88
2022/03/17 06:13:02;;;;;;;45.90;25.10;;;12.40;51.50;;;;;;5097601;27;20465;-87
2022/03/17 06:15:30;;;;;;;50.33;26.87;;;12.50;51.90;;;;;;5097457;27;20458;-87
2022/03/17 06:17:59;;;;;;;53.07;26.27;;;12.60;52.20;;;;;;5132101;27;20446;-87
2022/03/17 06:20:29;;;;;;;49.17;26.37;;;12.60;52.40;;;;;;5116330;27;20456;-87
2022/03/17 06:22:58;;;;;;;38.47;23.63;;;12.60;52.30;;;;;;5133236;27;20437;-87
2022/03/17 06:25:28;;;;;;;50.77;28.37;;;12.60;52.40;;;;;;5135626;27;21207;-88
2022/03/17 06:27:55;;;;;;;49.10;28.20;;;12.70;52.10;;;;;;5114222;27;22192;-87
2022/03/17 06:30:24;;;;;;;51.53;29.13;;;12.50;51.60;;;;;;5119121;27;20452;-87
2022/03/17 06:32:51;;;;;;;77.50;38.30;;;12.30;52.10;;;;;;5131134;27;20442;-88
2022/03/17 06:35:20;;;;;;;54.73;27.80;;;12.30;52.00;;;;;;5113398;27;20458;-87
2022/03/17 06:37:49;;;;;;;50.37;26.20;;;12.30;51.90;;;;;;5124891;27;20456;-88
2022/03/17 06:40:18;;;;;;;50.33;26.13;;;12.40;52.40;;;;;;5100979;27;20462;-87
2022/03/17 06:42:47;;;;;;;48.80;26.23;;;12.40;52.80;;;;;;5130420;27;20471;-86
2022/03/17 06:45:14;;;;;;;46.37;23.77;;;12.50;52.60;;;;;;5110497;27;20968;-87
2022/03/17 06:47:42;;;;;;;47.67;24.20;;;12.70;53.00;;;;;;5093290;27;20477;-88
2022/03/17 06:50:11;;;;;;;49.33;26.57;;;12.70;53.10;;;;;;5098078;27;20579;-87
2022/03/17 06:52:39;;;;;;;48.03;26.23;;;12.80;52.80;;;;;;5104513;27;20461;-88
2022/03/17 06:55:09;;;;;;;52.70;25.23;;;12.80;52.80;;;;;;5099087;27;20461;-88
2022/03/17 06:57:36;;;;;;;47.77;26.33;;;12.90;52.90;;;;;;5114223;27;20974;-88
2022/03/17 07:00:05;;;;;;;61.53;30.47;;;12.90;52.90;;;;;;5114865;27;20941;-87
2022/03/17 07:02:33;;;;;;;57.47;34.00;;;12.90;52.50;;;;;;5099627;27;21386;-88
2022/03/17 07:04:59;;;;;;;48.27;27.33;;;12.60;51.30;;;;;;5122825;27;20476;-87
2022/03/17 07:07:27;;;;;;;54.23;31.00;;;12.60;51.60;;;;;;5114160;27;20935;-88
2022/03/17 07:09:54;;;;;;;52.73;28.53;;;12.50;51.80;;;;;;5122361;27;20453;-88
2022/03/17 07:12:22;;;;;;;60.20;33.80;;;12.60;51.90;;;;;;5114898;27;20473;-87
2022/03/17 07:14:49;;;;;;;96.33;42.00;;;12.70;51.80;;;;;;5100266;27;20542;-88
2022/03/17 07:17:19;;;;;;;74.47;38.20;;;12.70;51.50;;;;;;5099517;27;20461;-88
2022/03/17 07:22:13;;;;;;;46.77;26.23;;;12.70;51.10;;;;;;5098067;27;20464;-86
2022/03/17 07:24:40;;;;;;;51.57;31.13;;;12.60;51.40;;;;;;5113392;27;20466;-88
2022/03/17 07:27:07;;;;;;;71.07;37.30;;;12.70;51.70;;;;;;5133301;27;20446;-88
2022/03/17 07:29:36;;;;;;;101.20;55.83;;;12.90;51.60;;;;;;5132840;27;20456;-89
2022/03/17 07:32:04;;;;;;;65.83;36.80;;;13.00;51.60;;;;;;5133383;27;20819;-88
2022/03/17 07:34:31;;;;;;;61.50;34.20;;;13.10;51.60;;;;;;5114759;27;20837;-88
2022/03/17 07:36:59;;;;;;;47.27;24.70;;;13.20;51.90;;;;;;5097330;27;20529;-89
2022/03/17 07:39:26;;;;;;;45.53;27.10;;;13.00;50.50;;;;;;5117440;27;20437;-88
2022/03/17 07:41:53;;;;;;;41.57;25.40;;;13.00;51.00;;;;;;5132157;27;20562;-89
2022/03/17 07:44:20;;;;;;;47.20;26.67;;;13.10;51.10;;;;;;5098151;27;20471;-89
2022/03/17 07:47:08;;;;;;;47.17;25.53;;;13.20;51.10;;;;;;5130337;27;20924;-88
2022/03/17 07:49:38;;;;;;;48.10;28.30;;;13.30;51.20;;;;;;5104654;27;20457;-89
2022/03/17 07:52:07;;;;;;;46.03;25.77;;;13.40;51.10;;;;;;5114046;27;20536;-88
2022/03/17 07:54:35;;;;;;;46.27;27.77;;;13.50;50.90;;;;;;5113716;27;20491;-88
2022/03/17 07:57:03;;;;;;;51.13;26.67;;;13.50;50.60;;;;;;5131660;27;20441;-87
2022/03/17 07:59:30;;;;;;;66.80;27.13;;;13.50;50.20;;;;;;5113285;27;21212;-88
2022/03/17 08:01:57;;;;;;;52.80;29.77;;;13.50;49.90;;;;;;5113608;27;20482;-88
2022/03/17 08:04:26;;;;;;;48.87;27.60;;;13.20;50.10;;;;;;5114442;27;20893;-89
2022/03/17 08:06:53;;;;;;;43.70;25.00;;;13.10;50.70;;;;;;5114364;27;20808;-88
2022/03/17 08:09:20;;;;;;;49.20;25.80;;;13.20;51.10;;;;;;5085910;27;20450;-90
2022/03/17 08:11:48;;;;;;;45.97;27.10;;;13.40;51.40;;;;;;5098821;27;20457;-88
2022/03/17 08:14:16;;;;;;;45.03;27.07;;;13.40;50.90;;;;;;5129279;27;20466;-88
2022/03/17 08:16:43;;;;;;;49.17;25.87;;;13.50;50.90;;;;;;5114742;27;20808;-87
2022/03/17 08:19:10;;;;;;;52.93;28.90;;;13.70;50.60;;;;;;5111996;27;20541;-88
2022/03/17 08:21:39;;;;;;;46.70;26.43;;;13.70;50.00;;;;;;5112794;27;20478;-88
2022/03/17 08:24:06;;;;;;;55.30;27.33;;;13.60;49.80;;;;;;5096882;27;20528;-89
2022/03/17 08:26:33;;;;;;;83.50;41.57;;;13.60;49.90;;;;;;5112806;27;20437;-88
2022/03/17 08:29:01;;;;;;;55.77;31.07;;;13.40;49.70;;;;;;5130999;27;20452;-88
2022/03/17 08:31:28;;;;;;;122.50;61.90;;;13.50;49.70;;;;;;5104202;27;20446;-88
2022/03/17 08:33:56;;;;;;;73.87;39.10;;;13.40;49.90;;;;;;5097815;27;20483;-88
2022/03/17 08:36:23;;;;;;;53.97;31.50;;;13.60;50.70;;;;;;5100512;27;20535;-88
2022/03/17 08:38:52;;;;;;;51.07;27.33;;;13.80;50.00;;;;;;5093605;27;20456;-89
2022/03/17 08:41:20;;;;;;;47.67;26.37;;;13.90;49.80;;;;;;5133706;27;20453;-89
2022/03/17 08:43:47;;;;;;;51.00;27.33;;;13.90;49.40;;;;;;5129334;27;20469;-88
2022/03/17 08:51:42;;;;;;;44.37;26.40;;;13.80;49.30;;;;;;5086952;27;20434;-88
2022/03/17 08:54:11;;;;;;;46.40;25.80;;;14.00;49.30;;;;;;5097855;27;20576;-88
2022/03/17 08:56:38;;;;;;;41.53;25.77;;;14.10;49.00;;;;;;5131896;27;20445;-88
2022/03/17 08:59:06;;;;;;;44.40;26.97;;;14.20;48.50;;;;;;5097922;27;20456;-88
2022/03/17 09:01:37;;;;;;;42.83;25.43;;;14.40;48.50;;;;;;5111526;27;20450;-88
2022/03/17 09:04:04;;;;;;;44.57;26.53;;;14.40;48.00;;;;;;5130294;27;20558;-88
2022/03/17 09:06:31;;;;;;;40.57;24.73;;;14.40;48.10;;;;;;5096010;27;21427;-88
2022/03/17 09:08:58;;;;;;;41.77;24.67;;;14.50;48.30;;;;;;5095671;27;21003;-88
2022/03/17 09:11:26;;;;;;;47.73;25.87;;;14.50;47.80;;;;;;5097070;27;20943;-88
2022/03/17 09:13:53;;;;;;;42.40;25.17;;;14.20;48.10;;;;;;5094420;27;20462;-86
2022/03/17 09:16:20;;;;;;;42.40;25.03;;;13.90;48.50;;;;;;5099458;27;21251;-88
2022/03/17 09:18:47;;;;;;;44.87;26.60;;;13.80;48.80;;;;;;5113031;27;20463;-89
2022/03/17 09:21:14;;;;;;;48.17;27.70;;;14.00;49.10;;;;;;5112314;27;20503;-87
2022/03/17 09:23:41;;;;;;;44.50;27.50;;;14.10;48.60;;;;;;5111188;27;20573;-88
2022/03/17 09:26:08;;;;;;;52.07;26.20;;;14.20;48.20;;;;;;5096302;27;20463;-87
2022/03/17 09:28:37;;;;;;;48.17;26.37;;;14.30;48.80;;;;;;5113119;27;20468;-86
2022/03/17 09:31:04;;;;;;;47.00;25.77;;;14.30;48.30;;;;;;5120150;27;20963;-88
2022/03/17 09:33:31;;;;;;;40.43;25.20;;;14.30;48.30;;;;;;5094895;27;20466;-88
2022/03/17 09:35:58;;;;;;;50.57;26.30;;;14.40;48.40;;;;;;5127082;27;20453;-87
2022/03/17 09:38:25;;;;;;;46.03;25.00;;;14.50;48.10;;;;;;5113278;27;21202;-87
2022/03/17 09:40:52;;;;;;;45.50;25.23;;;14.40;47.70;;;;;;5111341;27;20450;-88
2022/03/17 09:43:21;;;;;;;50.50;25.87;;;14.30;48.00;;;;;;5112780;27;20577;-88
2022/03/17 09:45:52;;;;;;;44.03;25.40;;;14.40;47.90;;;;;;5134176;27;20453;-87
2022/03/17 09:48:21;;;;;;;47.83;26.07;;;14.40;48.00;;;;;;5134089;27;20441;-88
2022/03/17 09:50:55;;;;;;;45.43;25.40;;;14.60;48.00;;;;;;5115153;27;20436;-89
2022/03/17 09:53:23;;;;;;;44.23;26.13;;;14.60;47.60;;;;;;5116250;27;20488;-89
2022/03/17 09:55:50;;;;;;;43.03;25.80;;;14.70;47.50;;;;;;5101192;27;20970;-88
2022/03/17 09:58:18;;;;;;;46.23;26.83;;;14.50;47.20;;;;;;5107667;27;20490;-87
2022/03/17 10:00:48;;;;;;;47.97;25.97;;;14.50;47.70;;;;;;5099552;27;20460;-86
2022/03/17 10:03:17;;;;;;;41.13;25.53;;;14.70;47.60;;;;;;5118745;27;20462;-88
2022/03/17 10:05:46;;;;;;;45.33;25.33;;;14.90;47.10;;;;;;5135219;27;20488;-89
2022/03/17 10:08:14;;;;;;;42.57;24.50;;;14.90;46.60;;;;;;5132896;27;20433;-88
2022/03/17 10:10:42;;;;;;;48.57;25.57;;;14.70;47.10;;;;;;5133158;27;20449;-88
2022/03/17 10:13:13;;;;;;;41.30;25.30;;;14.80;47.60;;;;;;5106545;27;20441;-87
2022/03/17 10:15:40;;;;;;;44.27;27.70;;;14.80;47.40;;;;;;5135197;27;20473;-87
2022/03/17 10:18:24;;;;;;;47.73;25.97;;;14.60;46.30;;;;;;5098920;27;20450;-87
2022/03/17 10:21:08;;;;;;;46.00;24.87;;;14.40;47.10;;;;;;5090765;27;20442;-87
2022/03/17 10:23:44;;;;;;;45.87;25.90;;;14.50;47.50;;;;;;5113233;27;21124;-87
2022/03/17 10:26:12;;;;;;;45.67;25.43;;;14.50;47.20;;;;;;5116760;27;20440;-88
2022/03/17 10:28:40;;;;;;;43.50;26.50;;;14.40;47.10;;;;;;5114244;27;20968;-88
2022/03/17 10:31:08;;;;;;;42.40;24.90;;;14.60;47.50;;;;;;5089728;27;21062;-88
2022/03/17 10:33:36;;;;;;;42.53;25.33;;;14.80;47.00;;;;;;5113533;27;20973;-84
2022/03/17 10:36:21;;;;;;;39.47;24.53;;;14.90;46.30;;;;;;5134232;27;20449;-88
2022/03/17 10:38:48;;;;;;;46.83;26.90;;;15.00;46.50;;;;;;5097418;27;20456;-87
2022/03/17 10:41:17;;;;;;;46.17;25.97;;;15.00;46.50;;;;;;5130774;27;20442;-89
2022/03/17 10:43:44;;;;;;;63.67;34.40;;;15.00;46.00;;;;;;5134333;27;20481;-88
2022/03/17 10:46:12;;;;;;;45.93;26.90;;;15.20;45.80;;;;;;5112531;27;20437;-88
2022/03/17 10:48:58;;;;;;;37.83;24.10;;;15.20;45.50;;;;;;5088690;27;20842;-88
2022/03/17 10:51:32;;;;;;;49.17;27.10;;;15.30;45.20;;;;;;5099315;27;20482;-88
2022/03/17 10:54:03;;;;;;;40.87;24.90;;;15.30;46.00;;;;;;5132830;27;20512;-88
2022/03/17 10:56:30;;;;;;;40.47;24.13;;;15.50;45.30;;;;;;5083306;27;21010;-89
2022/03/17 10:59:00;;;;;;;40.30;23.80;;;15.60;45.00;;;;;;5131585;27;20458;-88
2022/03/17 11:01:38;;;;;;;44.30;26.27;;;15.70;45.20;;;;;;5117914;27;21425;-87
2022/03/17 11:04:06;;;;;;;43.73;24.87;;;16.00;45.20;;;;;;5132118;27;20491;-88
2022/03/17 11:06:34;;;;;;;36.37;21.87;;;15.60;44.50;;;;;;5113997;27;20441;-88
2022/03/17 11:09:01;;;;;;;41.33;23.87;;;15.60;44.30;;;;;;5099589;27;20449;-86
2022/03/17 11:11:30;;;;;;;48.47;26.13;;;15.60;44.70;;;;;;5088735;27;20818;-88
2022/03/17 11:13:58;;;;;;;36.27;23.73;;;15.70;44.70;;;;;;5132271;27;20467;-87
2022/03/17 11:16:34;;;;;;;40.17;24.43;;;15.60;44.60;;;;;;5113368;27;20438;-89
2022/03/17 11:19:01;;;;;;;45.33;25.13;;;15.70;45.10;;;;;;5115464;27;20454;-88
2022/03/17 11:21:31;;;;;;;41.30;24.10;;;15.60;44.80;;;;;;5117693;27;21242;-88
2022/03/17 11:24:04;;;;;;;38.80;23.30;;;16.00;45.00;;;;;;5114560;27;20556;-85
2022/03/17 11:26:37;;;;;;;38.33;24.00;;;16.10;44.40;;;;;;5099090;27;20815;-88
2022/03/17 11:29:06;;;;;;;40.30;25.00;;;16.30;43.60;;;;;;5113053;27;20817;-88
2022/03/17 11:31:54;;;;;;;44.00;24.40;;;16.20;43.30;;;;;;5114576;27;20468;-89
2022/03/17 11:34:42;;;;;;;46.43;24.87;;;15.80;43.70;;;;;;5116110;27;20487;-88
2022/03/17 11:37:27;;;;;;;40.83;23.87;;;16.10;44.40;;;;;;5096650;27;20452;-88
2022/03/17 11:39:57;;;;;;;37.50;24.10;;;16.30;44.10;;;;;;5130069;27;20932;-88
2022/03/17 11:42:35;;;;;;;41.13;24.00;;;16.30;43.40;;;;;;5115356;27;20463;-87
2022/03/17 11:45:40;;;;;;;46.70;24.87;;;16.60;44.00;;;;;;5133668;27;20468;-88
2022/03/17 11:48:12;;;;;;;47.33;25.30;;;16.80;43.30;;;;;;5125949;27;20990;-89
2022/03/17 11:50:42;;;;;;;37.67;23.90;;;16.80;42.50;;;;;;5121479;27;20471;-88
2022/03/17 11:53:21;;;;;;;40.63;24.93;;;16.60;42.50;;;;;;5116598;27;20449;-88
2022/03/17 11:55:54;;;;;;;42.90;23.73;;;16.60;43.50;;;;;;5131530;27;20452;-88
2022/03/17 11:58:28;;;;;;;45.80;24.80;;;16.70;42.80;;;;;;5095708;27;20452;-88
2022/03/17 12:01:04;;;;;;;45.90;25.60;;;16.60;42.80;;;;;;5131205;27;20442;-88
2022/03/17 12:03:32;;;;;;;45.30;28.07;;;16.70;42.60;;;;;;5097980;27;20480;-88
2022/03/17 12:06:12;;;;;;;41.70;24.83;;;16.60;42.40;;;;;;5096939;27;20506;-88
2022/03/17 12:08:42;;;;;;;39.63;25.07;;;16.60;42.40;;;;;;5114292;27;20448;-89
2022/03/17 12:11:11;;;;;;;45.93;25.07;;;16.80;43.10;;;;;;5113678;27;21039;-88
2022/03/17 12:13:38;;;;;;;43.43;25.93;;;16.90;43.00;;;;;;5132498;27;21003;-88
2022/03/17 12:16:08;;;;;;;50.50;30.50;;;16.90;42.30;;;;;;5096743;27;20448;-88
2022/03/17 12:19:02;;;;;;;42.90;25.13;;;16.90;42.40;;;;;;5096867;27;21055;-88
2022/03/17 12:22:06;;;;;;;45.70;26.40;;;16.90;43.20;;;;;;5097202;27;20446;-88
2022/03/17 12:24:38;;;;;;;46.47;28.00;;;17.00;42.60;;;;;;5128755;27;20958;-88
2022/03/17 12:27:07;;;;;;;43.30;25.93;;;17.10;42.10;;;;;;5132513;27;21098;-88
2022/03/17 12:29:34;;;;;;;41.27;25.00;;;17.20;42.20;;;;;;5097515;27;20458;-88
2022/03/17 12:32:06;;;;;;;38.50;25.53;;;17.20;42.30;;;;;;5110981;27;20453;-88
2022/03/17 12:34:34;;;;;;;39.23;23.87;;;16.80;42.00;;;;;;5100344;27;20868;-87
2022/03/17 12:37:03;;;;;;;37.73;23.40;;;16.80;43.10;;;;;;5113339;27;21028;-88
2022/03/17 12:39:31;;;;;;;39.00;24.53;;;16.70;43.80;;;;;;5130825;27;20884;-89
2022/03/17 12:42:00;;;;;;;37.43;23.20;;;16.60;43.30;;;;;;5103343;27;20454;-88
2022/03/17 12:44:28;;;;;;;39.27;23.37;;;16.40;44.30;;;;;;5131149;27;20980;-87
2022/03/17 12:46:56;;;;;;;50.13;23.40;;;16.70;43.70;;;;;;5115555;27;20860;-88
2022/03/17 12:49:24;;;;;;;47.03;24.13;;;17.00;43.30;;;;;;5087712;27;20549;-88
2022/03/17 12:51:51;;;;;;;40.43;24.30;;;17.00;44.00;;;;;;5113078;27;21574;-89